sensor_id;sensor_type;location;lat;lon;timestamp;pressure;altitude;pressure_sealevel;temperature;humidity
70200;BME280;57587;55.688;37.600;2023-05-23T00:00:18;99897.94;;;14.09;69.71
70200;BME280;57587;55.688;37.600;2023-05-23T00:02:45;99897.94;;;14.09;69.54
70200;BME280;57587;55.688;37.600;2023-05-23T00:05:13;99897.94;;;14.09;69.64
70200;BME280;57587;55.688;37.600;2023-05-23T00:07:41;99901.84;;;14.06;69.50
70200;BME280;57587;55.688;37.600;2023-05-23T00:10:09;99902.03;;;14.05;70.02
70200;BME280;57587;55.688;37.600;2023-05-23T00:12:36;99896.63;;;14.05;69.76
70200;BME280;57587;55.688;37.600;2023-05-23T00:15:05;99904.09;;;14.03;69.77
70200;BME280;57587;55.688;37.600;2023-05-23T00:17:34;99905.94;;;14.02;69.58
70200;BME280;57587;55.688;37.600;2023-05-23T00:20:05;99904.28;;;14.01;69.66
70200;BME280;57587;55.688;37.600;2023-05-23T00:22:35;99901.81;;;14.00;69.45
70200;BME280;57587;55.688;37.600;2023-05-23T00:25:06;99899.50;;;13.97;69.58
70200;BME280;57587;55.688;37.600;2023-05-23T00:27:33;99905.50;;;13.99;69.51
70200;BME280;57587;55.688;37.600;2023-05-23T00:30:00;99900.34;;;13.97;70.31
70200;BME280;57587;55.688;37.600;2023-05-23T00:32:31;99905.91;;;13.96;69.83
70200;BME280;57587;55.688;37.600;2023-05-23T00:34:59;99903.22;;;13.96;69.92
70200;BME280;57587;55.688;37.600;2023-05-23T00:37:26;99898.03;;;13.94;69.92
70200;BME280;57587;55.688;37.600;2023-05-23T00:39:54;99902.59;;;13.94;69.93
70200;BME280;57587;55.688;37.600;2023-05-23T00:42:21;99898.88;;;13.95;69.60
70200;BME280;57587;55.688;37.600;2023-05-23T00:44:48;99899.91;;;13.94;69.57
70200;BME280;57587;55.688;37.600;2023-05-23T00:47:15;99899.91;;;13.94;69.83
70200;BME280;57587;55.688;37.600;2023-05-23T00:49:43;99898.22;;;13.93;69.77
70200;BME280;57587;55.688;37.600;2023-05-23T00:52:11;99904.25;;;13.95;70.05
70200;BME280;57587;55.688;37.600;2023-05-23T00:54:38;99894.53;;;13.94;69.52
70200;BME280;57587;55.688;37.600;2023-05-23T00:57:05;99902.59;;;13.94;69.79
70200;BME280;57587;55.688;37.600;2023-05-23T00:59:34;99894.53;;;13.94;69.95
70200;BME280;57587;55.688;37.600;2023-05-23T01:02:03;99891.84;;;13.94;69.57
70200;BME280;57587;55.688;37.600;2023-05-23T01:04:30;99887.47;;;13.93;69.72
70200;BME280;57587;55.688;37.600;2023-05-23T01:07:00;99892.66;;;13.94;69.81
70200;BME280;57587;55.688;37.600;2023-05-23T01:09:27;99893.25;;;13.90;69.55
70200;BME280;57587;55.688;37.600;2023-05-23T01:17:54;99888.09;;;13.95;69.48
70200;BME280;57587;55.688;37.600;2023-05-23T01:20:32;99877.13;;;13.96;69.40
70200;BME280;57587;55.688;37.600;2023-05-23T01:23:12;99881.69;;;13.96;69.54
70200;BME280;57587;55.688;37.600;2023-05-23T01:28:43;99874.25;;;13.98;69.28
70200;BME280;57587;55.688;37.600;2023-05-23T01:31:12;99881.09;;;14.00;69.02
70200;BME280;57587;55.688;37.600;2023-05-23T01:33:39;99888.13;;;14.01;68.73
70200;BME280;57587;55.688;37.600;2023-05-23T01:36:07;99896.22;;;14.01;68.91
70200;BME280;57587;55.688;37.600;2023-05-23T01:38:35;99895.56;;;13.99;68.74
70200;BME280;57587;55.688;37.600;2023-05-23T01:41:02;99889.59;;;14.04;68.25
70200;BME280;57587;55.688;37.600;2023-05-23T01:43:30;99892.31;;;14.04;68.52
70200;BME280;57587;55.688;37.600;2023-05-23T01:45:58;99887.16;;;14.09;68.34
70200;BME280;57587;55.688;37.600;2023-05-23T01:48:27;99883.44;;;14.10;67.94
70200;BME280;57587;55.688;37.600;2023-05-23T01:50:57;99878.47;;;14.14;67.87
70200;BME280;57587;55.688;37.600;2023-05-23T01:53:25;99879.53;;;14.19;67.81
70200;BME280;57587;55.688;37.600;2023-05-23T01:55:53;99878.94;;;14.24;67.46
70200;BME280;57587;55.688;37.600;2023-05-23T01:58:21;99881.88;;;14.29;67.38
70200;BME280;57587;55.688;37.600;2023-05-23T02:00:48;99870.69;;;14.32;66.91
70200;BME280;57587;55.688;37.600;2023-05-23T02:03:16;99876.75;;;14.41;66.12
70200;BME280;57587;55.688;37.600;2023-05-23T02:05:43;99881.09;;;14.48;66.50
70200;BME280;57587;55.688;37.600;2023-05-23T02:08:10;99874.53;;;14.51;66.33
70200;BME280;57587;55.688;37.600;2023-05-23T02:10:37;99872.06;;;14.56;66.06
70200;BME280;57587;55.688;37.600;2023-05-23T02:13:05;99874.97;;;14.61;65.96
70200;BME280;57587;55.688;37.600;2023-05-23T02:15:32;99875.81;;;14.62;66.21
70200;BME280;57587;55.688;37.600;2023-05-23T02:17:59;99887.41;;;14.62;66.57
70200;BME280;57587;55.688;37.600;2023-05-23T02:20:29;99884.50;;;14.64;64.89
70200;BME280;57587;55.688;37.600;2023-05-23T02:22:56;99874.97;;;14.68;64.43
70200;BME280;57587;55.688;37.600;2023-05-23T02:25:24;99860.91;;;14.72;64.85
70200;BME280;57587;55.688;37.600;2023-05-23T02:27:51;99861.34;;;14.76;64.72
70200;BME280;57587;55.688;37.600;2023-05-23T02:30:18;99869.84;;;14.80;65.22
70200;BME280;57587;55.688;37.600;2023-05-23T02:32:45;99862.56;;;14.80;65.19
70200;BME280;57587;55.688;37.600;2023-05-23T02:35:13;99864.25;;;14.81;64.50
70200;BME280;57587;55.688;37.600;2023-05-23T02:37:40;99864.88;;;14.83;64.50
70200;BME280;57587;55.688;37.600;2023-05-23T02:40:08;99871.72;;;14.86;64.54
70200;BME280;57587;55.688;37.600;2023-05-23T02:42:35;99871.09;;;14.90;63.96
70200;BME280;57587;55.688;37.600;2023-05-23T02:45:02;99869.03;;;14.92;63.97
70200;BME280;57587;55.688;37.600;2023-05-23T02:47:30;99860.53;;;14.95;64.03
70200;BME280;57587;55.688;37.600;2023-05-23T02:49:58;99866.38;;;14.99;63.73
70200;BME280;57587;55.688;37.600;2023-05-23T02:52:25;99873.41;;;15.00;63.46
70200;BME280;57587;55.688;37.600;2023-05-23T02:54:52;99877.56;;;14.96;63.82
70200;BME280;57587;55.688;37.600;2023-05-23T02:57:20;99875.88;;;14.95;63.78
70200;BME280;57587;55.688;37.600;2023-05-23T02:59:52;99884.16;;;14.93;63.66
70200;BME280;57587;55.688;37.600;2023-05-23T03:02:19;99882.91;;;14.89;63.55
70200;BME280;57587;55.688;37.600;2023-05-23T03:04:47;99885.19;;;14.86;63.06
70200;BME280;57587;55.688;37.600;2023-05-23T03:07:15;99893.06;;;14.87;63.06
70200;BME280;57587;55.688;37.600;2023-05-23T03:09:55;99887.28;;;14.90;63.16
70200;BME280;57587;55.688;37.600;2023-05-23T03:12:22;99879.59;;;14.94;62.38
70200;BME280;57587;55.688;37.600;2023-05-23T03:14:49;99880.84;;;14.98;61.74
70200;BME280;57587;55.688;37.600;2023-05-23T03:17:16;99879.44;;;15.02;61.61
70200;BME280;57587;55.688;37.600;2023-05-23T03:19:43;99871.75;;;15.12;60.17
70200;BME280;57587;55.688;37.600;2023-05-23T03:22:11;99870.31;;;15.16;60.40
70200;BME280;57587;55.688;37.600;2023-05-23T03:24:38;99889.16;;;15.30;60.32
70200;BME280;57587;55.688;37.600;2023-05-23T03:27:05;99867.59;;;15.30;60.19
70200;BME280;57587;55.688;37.600;2023-05-23T03:29:33;99875.06;;;15.41;59.14
70200;BME280;57587;55.688;37.600;2023-05-23T03:32:01;99870.72;;;15.53;59.15
70200;BME280;57587;55.688;37.600;2023-05-23T03:34:28;99860.13;;;15.65;58.73
70200;BME280;57587;55.688;37.600;2023-05-23T03:36:56;99862.38;;;15.88;58.19
70200;BME280;57587;55.688;37.600;2023-05-23T03:39:23;99866.72;;;16.02;57.76
70200;BME280;57587;55.688;37.600;2023-05-23T03:41:51;99876.66;;;16.08;56.90
70200;BME280;57587;55.688;37.600;2023-05-23T03:44:18;99862.06;;;16.23;56.69
70200;BME280;57587;55.688;37.600;2023-05-23T03:46:45;99864.09;;;16.34;56.38
70200;BME280;57587;55.688;37.600;2023-05-23T03:49:14;99863.25;;;16.40;55.77
70200;BME280;57587;55.688;37.600;2023-05-23T03:51:41;99864.03;;;16.47;55.53
70200;BME280;57587;55.688;37.600;2023-05-23T03:54:10;99866.50;;;16.55;56.03
70200;BME280;57587;55.688;37.600;2023-05-23T03:56:37;99860.44;;;16.67;55.81
70200;BME280;57587;55.688;37.600;2023-05-23T03:59:04;99858.31;;;16.69;55.03
70200;BME280;57587;55.688;37.600;2023-05-23T04:01:32;99855.19;;;16.72;56.00
70200;BME280;57587;55.688;37.600;2023-05-23T04:03:59;99854.00;;;16.61;55.85
70200;BME280;57587;55.688;37.600;2023-05-23T04:06:30;99856.47;;;16.63;55.57
70200;BME280;57587;55.688;37.600;2023-05-23T04:08:58;99866.94;;;16.52;55.98
70200;BME280;57587;55.688;37.600;2023-05-23T04:11:25;99872.34;;;16.52;56.82
70200;BME280;57587;55.688;37.600;2023-05-23T04:13:52;99863.66;;;16.44;56.23
70200;BME280;57587;55.688;37.600;2023-05-23T04:16:20;99870.72;;;16.45;56.16
70200;BME280;57587;55.688;37.600;2023-05-23T04:18:48;99865.75;;;16.35;56.09
70200;BME280;57587;55.688;37.600;2023-05-23T04:21:16;99868.66;;;16.40;56.11
70200;BME280;57587;55.688;37.600;2023-05-23T04:23:55;99859.88;;;16.51;55.49
70200;BME280;57587;55.688;37.600;2023-05-23T04:26:22;99861.97;;;16.49;55.31
70200;BME280;57587;55.688;37.600;2023-05-23T04:28:52;99868.56;;;16.53;55.39
70200;BME280;57587;55.688;37.600;2023-05-23T04:31:20;99870.41;;;16.59;55.08
70200;BME280;57587;55.688;37.600;2023-05-23T04:33:50;99861.25;;;16.67;55.19
70200;BME280;57587;55.688;37.600;2023-05-23T04:36:19;99852.69;;;16.77;55.20
70200;BME280;57587;55.688;37.600;2023-05-23T04:38:52;99857.22;;;16.83;53.68
70200;BME280;57587;55.688;37.600;2023-05-23T04:41:20;99870.50;;;16.91;54.55
70200;BME280;57587;55.688;37.600;2023-05-23T04:44:08;99864.72;;;16.81;53.90
70200;BME280;57587;55.688;37.600;2023-05-23T04:46:45;99857.28;;;16.70;53.61
70200;BME280;57587;55.688;37.600;2023-05-23T04:49:19;99864.38;;;16.64;53.33
70200;BME280;57587;55.688;37.600;2023-05-23T04:51:49;99852.56;;;16.58;52.84
70200;BME280;57587;55.688;37.600;2023-05-23T04:54:25;99852.38;;;16.53;52.60
70200;BME280;57587;55.688;37.600;2023-05-23T04:56:53;99849.50;;;16.48;53.12
70200;BME280;57587;55.688;37.600;2023-05-23T04:59:22;99859.50;;;16.48;52.92
70200;BME280;57587;55.688;37.600;2023-05-23T05:01:49;99863.00;;;16.48;52.91
70200;BME280;57587;55.688;37.600;2023-05-23T05:04:18;99852.84;;;16.44;52.85
70200;BME280;57587;55.688;37.600;2023-05-23T05:06:45;99856.13;;;16.52;52.90
70200;BME280;57587;55.688;37.600;2023-05-23T05:09:15;99885.75;;;16.66;52.94
70200;BME280;57587;55.688;37.600;2023-05-23T05:11:42;99888.03;;;16.75;53.46
70200;BME280;57587;55.688;37.600;2023-05-23T05:14:10;99893.22;;;16.70;53.51
70200;BME280;57587;55.688;37.600;2023-05-23T05:16:43;99888.03;;;16.69;53.05
70200;BME280;57587;55.688;37.600;2023-05-23T05:19:12;99888.91;;;16.63;53.39
70200;BME280;57587;55.688;37.600;2023-05-23T05:21:39;99889.53;;;16.65;53.81
70200;BME280;57587;55.688;37.600;2023-05-23T05:24:06;99886.81;;;16.65;53.57
70200;BME280;57587;55.688;37.600;2023-05-23T05:26:35;99888.69;;;16.64;54.09
70200;BME280;57587;55.688;37.600;2023-05-23T05:29:03;99888.03;;;16.69;54.65
70200;BME280;57587;55.688;37.600;2023-05-23T05:31:31;99878.94;;;16.56;54.18
70200;BME280;57587;55.688;37.600;2023-05-23T05:33:59;99888.03;;;16.69;54.52
70200;BME280;57587;55.688;37.600;2023-05-23T05:36:26;99884.31;;;16.70;54.61
70200;BME280;57587;55.688;37.600;2023-05-23T05:38:54;99881.59;;;16.70;54.39
70200;BME280;57587;55.688;37.600;2023-05-23T05:41:21;99884.47;;;16.81;54.22
70200;BME280;57587;55.688;37.600;2023-05-23T05:43:52;99879.91;;;16.82;53.74
70200;BME280;57587;55.688;37.600;2023-05-23T05:46:19;99872.75;;;16.94;53.50
70200;BME280;57587;55.688;37.600;2023-05-23T05:48:47;99872.16;;;16.92;53.42
70200;BME280;57587;55.688;37.600;2023-05-23T05:51:16;99874.88;;;16.86;53.89
70200;BME280;57587;55.688;37.600;2023-05-23T05:53:44;99876.72;;;16.92;53.77
70200;BME280;57587;55.688;37.600;2023-05-23T05:56:12;99882.50;;;16.95;53.76
70200;BME280;57587;55.688;37.600;2023-05-23T05:58:40;99874.16;;;17.03;53.99
70200;BME280;57587;55.688;37.600;2023-05-23T06:01:11;99880.19;;;16.99;53.88
70200;BME280;57587;55.688;37.600;2023-05-23T06:03:39;99868.78;;;16.97;54.34
70200;BME280;57587;55.688;37.600;2023-05-23T06:06:06;99878.25;;;17.13;54.33
70200;BME280;57587;55.688;37.600;2023-05-23T06:08:36;99867.88;;;17.10;54.11
70200;BME280;57587;55.688;37.600;2023-05-23T06:11:04;99869.09;;;17.14;54.16
70200;BME280;57587;55.688;37.600;2023-05-23T06:13:31;99878.19;;;17.19;53.91
70200;BME280;57587;55.688;37.600;2023-05-23T06:15:59;99869.78;;;17.27;53.87
70200;BME280;57587;55.688;37.600;2023-05-23T06:18:26;99863.88;;;17.37;53.95
70200;BME280;57587;55.688;37.600;2023-05-23T06:20:54;99861.81;;;17.39;53.29
70200;BME280;57587;55.688;37.600;2023-05-23T06:23:22;99861.81;;;17.39;53.42
70200;BME280;57587;55.688;37.600;2023-05-23T06:25:49;99862.06;;;17.31;53.65
70200;BME280;57587;55.688;37.600;2023-05-23T06:28:17;99853.41;;;17.47;53.89
70200;BME280;57587;55.688;37.600;2023-05-23T06:30:45;99841.91;;;17.77;52.98
70200;BME280;57587;55.688;37.600;2023-05-23T06:33:12;99847.94;;;17.97;52.24
70200;BME280;57587;55.688;37.600;2023-05-23T06:35:41;99848.94;;;18.33;51.34
70200;BME280;57587;55.688;37.600;2023-05-23T06:38:09;99843.78;;;18.92;49.95
70200;BME280;57587;55.688;37.600;2023-05-23T06:40:36;99842.50;;;18.95;49.22
70200;BME280;57587;55.688;37.600;2023-05-23T06:43:03;99834.72;;;18.86;49.59
70200;BME280;57587;55.688;37.600;2023-05-23T06:45:47;99835.50;;;19.17;48.75
70200;BME280;57587;55.688;37.600;2023-05-23T06:48:14;99840.94;;;19.88;47.76
70200;BME280;57587;55.688;37.600;2023-05-23T06:50:43;99828.41;;;20.79;45.26
70200;BME280;57587;55.688;37.600;2023-05-23T06:53:11;99826.94;;;21.95;42.83
70200;BME280;57587;55.688;37.600;2023-05-23T06:55:40;99830.47;;;22.88;40.44
70200;BME280;57587;55.688;37.600;2023-05-23T06:58:10;99815.66;;;23.43;39.07
70200;BME280;57587;55.688;37.600;2023-05-23T07:00:38;99816.41;;;23.71;38.83
70200;BME280;57587;55.688;37.600;2023-05-23T07:03:13;99814.88;;;24.53;37.17
70200;BME280;57587;55.688;37.600;2023-05-23T07:05:40;99814.69;;;25.16;36.32
70200;BME280;57587;55.688;37.600;2023-05-23T07:08:09;99813.25;;;25.70;35.80
70200;BME280;57587;55.688;37.600;2023-05-23T07:10:47;99822.91;;;25.21;35.90
70200;BME280;57587;55.688;37.600;2023-05-23T07:13:37;99810.59;;;25.34;35.59
70200;BME280;57587;55.688;37.600;2023-05-23T07:16:05;99808.00;;;25.73;34.80
70200;BME280;57587;55.688;37.600;2023-05-23T07:18:36;99799.25;;;25.82;34.88
70200;BME280;57587;55.688;37.600;2023-05-23T07:21:05;99803.31;;;25.94;34.46
70200;BME280;57587;55.688;37.600;2023-05-23T07:23:32;99807.72;;;25.95;34.73
70200;BME280;57587;55.688;37.600;2023-05-23T07:26:01;99794.78;;;26.01;34.99
70200;BME280;57587;55.688;37.600;2023-05-23T07:29:01;99795.84;;;26.15;35.16
70200;BME280;57587;55.688;37.600;2023-05-23T07:31:28;99794.78;;;26.06;34.18
70200;BME280;57587;55.688;37.600;2023-05-23T07:33:59;99802.84;;;26.42;33.77
70200;BME280;57587;55.688;37.600;2023-05-23T07:36:33;99811.28;;;26.61;33.26
70200;BME280;57587;55.688;37.600;2023-05-23T07:39:03;99803.44;;;26.34;34.00
70200;BME280;57587;55.688;37.600;2023-05-23T07:41:30;99806.56;;;26.07;33.26
70200;BME280;57587;55.688;37.600;2023-05-23T07:43:57;99802.94;;;26.27;34.37
70200;BME280;57587;55.688;37.600;2023-05-23T07:46:24;99807.66;;;26.65;33.26
70200;BME280;57587;55.688;37.600;2023-05-23T07:48:52;99815.75;;;26.86;33.10
70200;BME280;57587;55.688;37.600;2023-05-23T07:51:19;99812.19;;;26.85;32.70
70200;BME280;57587;55.688;37.600;2023-05-23T07:53:49;99818.25;;;26.82;33.48
70200;BME280;57587;55.688;37.600;2023-05-23T07:56:19;99821.34;;;26.71;33.74
70200;BME280;57587;55.688;37.600;2023-05-23T07:58:46;99824.53;;;25.43;35.47
70200;BME280;57587;55.688;37.600;2023-05-23T08:01:15;99824.53;;;25.17;36.00
70200;BME280;57587;55.688;37.600;2023-05-23T08:04:01;99820.13;;;25.11;36.08
70200;BME280;57587;55.688;37.600;2023-05-23T08:06:47;99821.25;;;25.41;35.79
70200;BME280;57587;55.688;37.600;2023-05-23T08:10:00;99824.28;;;25.19;36.06
70200;BME280;57587;55.688;37.600;2023-05-23T08:12:28;99820.16;;;25.37;36.85
70200;BME280;57587;55.688;37.600;2023-05-23T08:15:05;99821.53;;;25.08;37.04
70200;BME280;57587;55.688;37.600;2023-05-23T08:17:41;99819.00;;;24.66;37.43
70200;BME280;57587;55.688;37.600;2023-05-23T08:20:08;99809.03;;;24.29;37.97
70200;BME280;57587;55.688;37.600;2023-05-23T08:22:38;99807.31;;;24.08;38.74
70200;BME280;57587;55.688;37.600;2023-05-23T08:25:05;99809.66;;;24.42;38.21
70200;BME280;57587;55.688;37.600;2023-05-23T08:27:35;99802.84;;;24.59;37.40
70200;BME280;57587;55.688;37.600;2023-05-23T08:30:12;99804.50;;;24.76;37.55
70200;BME280;57587;55.688;37.600;2023-05-23T08:32:39;99808.66;;;25.29;37.18
70200;BME280;57587;55.688;37.600;2023-05-23T08:35:07;99792.75;;;25.47;36.62
70200;BME280;57587;55.688;37.600;2023-05-23T08:37:35;99801.53;;;25.39;36.53
70200;BME280;57587;55.688;37.600;2023-05-23T08:40:06;99799.88;;;25.02;37.60
70200;BME280;57587;55.688;37.600;2023-05-23T08:42:41;99814.09;;;24.99;37.40
70200;BME280;57587;55.688;37.600;2023-05-23T08:45:11;99799.34;;;25.00;38.10
70200;BME280;57587;55.688;37.600;2023-05-23T08:47:43;99790.00;;;25.11;38.08
70200;BME280;57587;55.688;37.600;2023-05-23T08:50:14;99829.38;;;24.64;38.58
70200;BME280;57587;55.688;37.600;2023-05-23T08:52:57;99801.38;;;24.26;39.91
70200;BME280;57587;55.688;37.600;2023-05-23T08:55:28;99805.00;;;23.84;40.69
70200;BME280;57587;55.688;37.600;2023-05-23T08:57:58;99795.41;;;23.34;41.75
70200;BME280;57587;55.688;37.600;2023-05-23T09:00:48;99796.53;;;23.01;42.60
70200;BME280;57587;55.688;37.600;2023-05-23T09:03:16;99797.94;;;22.82;43.53
70200;BME280;57587;55.688;37.600;2023-05-23T09:06:08;99810.69;;;22.22;44.00
70200;BME280;57587;55.688;37.600;2023-05-23T09:08:37;99804.97;;;22.01;45.08
70200;BME280;57587;55.688;37.600;2023-05-23T09:11:06;99805.16;;;21.95;45.47
70200;BME280;57587;55.688;37.600;2023-05-23T09:13:37;99808.88;;;22.10;45.86
70200;BME280;57587;55.688;37.600;2023-05-23T09:16:11;99821.31;;;22.01;45.85
70200;BME280;57587;55.688;37.600;2023-05-23T09:18:44;99828.31;;;21.75;47.19
70200;BME280;57587;55.688;37.600;2023-05-23T09:21:14;99821.03;;;21.59;47.80
70200;BME280;57587;55.688;37.600;2023-05-23T09:23:55;99828.56;;;21.74;47.64
70200;BME280;57587;55.688;37.600;2023-05-23T09:26:22;99828.75;;;21.67;47.97
70200;BME280;57587;55.688;37.600;2023-05-23T09:28:49;99841.34;;;21.73;48.27
70200;BME280;57587;55.688;37.600;2023-05-23T09:31:17;99842.84;;;21.30;48.67
70200;BME280;57587;55.688;37.600;2023-05-23T09:33:49;99843.19;;;21.00;50.09
70200;BME280;57587;55.688;37.600;2023-05-23T09:36:18;99842.47;;;20.76;50.59
70200;BME280;57587;55.688;37.600;2023-05-23T09:38:46;99848.00;;;20.53;50.08
70200;BME280;57587;55.688;37.600;2023-05-23T09:41:14;99836.38;;;20.29;51.46
70200;BME280;57587;55.688;37.600;2023-05-23T09:43:52;99840.81;;;19.94;52.83
70200;BME280;57587;55.688;37.600;2023-05-23T09:46:21;99842.81;;;19.99;53.48
70200;BME280;57587;55.688;37.600;2023-05-23T09:48:49;99842.69;;;20.06;54.22
70200;BME280;57587;55.688;37.600;2023-05-23T09:51:20;99845.06;;;19.90;55.24
70200;BME280;57587;55.688;37.600;2023-05-23T09:53:48;99837.06;;;19.84;55.63
70200;BME280;57587;55.688;37.600;2023-05-23T09:56:16;99848.59;;;19.44;56.08
70200;BME280;57587;55.688;37.600;2023-05-23T09:58:47;99845.16;;;19.13;57.40
70200;BME280;57587;55.688;37.600;2023-05-23T10:01:15;99847.59;;;19.03;58.14
70200;BME280;57587;55.688;37.600;2023-05-23T10:03:52;99843.03;;;19.15;58.20
70200;BME280;57587;55.688;37.600;2023-05-23T10:06:43;99836.69;;;19.21;57.70
70200;BME280;57587;55.688;37.600;2023-05-23T10:09:17;99845.28;;;19.18;58.25
70200;BME280;57587;55.688;37.600;2023-05-23T10:14:40;99849.88;;;19.18;58.93
70200;BME280;57587;55.688;37.600;2023-05-23T10:20:17;99853.31;;;19.25;57.80
70200;BME280;57587;55.688;37.600;2023-05-23T10:22:47;99853.91;;;18.85;58.98
70200;BME280;57587;55.688;37.600;2023-05-23T10:25:15;99845.69;;;18.92;59.63
70200;BME280;57587;55.688;37.600;2023-05-23T10:27:43;99836.00;;;18.84;59.75
70200;BME280;57587;55.688;37.600;2023-05-23T10:30:10;99853.56;;;18.81;60.15
70200;BME280;57587;55.688;37.600;2023-05-23T10:32:39;99844.72;;;18.86;60.65
70200;BME280;57587;55.688;37.600;2023-05-23T10:35:36;99854.47;;;18.75;61.93
70200;BME280;57587;55.688;37.600;2023-05-23T10:43:49;99852.09;;;18.49;63.28
70200;BME280;57587;55.688;37.600;2023-05-23T10:46:19;99854.25;;;18.28;64.44
70200;BME280;57587;55.688;37.600;2023-05-23T10:48:53;99855.16;;;18.22;64.81
70200;BME280;57587;55.688;37.600;2023-05-23T10:51:23;99856.13;;;18.28;65.45
70200;BME280;57587;55.688;37.600;2023-05-23T10:53:53;99857.19;;;18.08;66.43
70200;BME280;57587;55.688;37.600;2023-05-23T10:56:23;99855.44;;;17.95;66.52
70200;BME280;57587;55.688;37.600;2023-05-23T10:58:52;99859.38;;;17.81;67.55
70200;BME280;57587;55.688;37.600;2023-05-23T11:01:20;99865.31;;;17.65;68.00
70200;BME280;57587;55.688;37.600;2023-05-23T11:03:50;99867.44;;;17.63;67.86
70200;BME280;57587;55.688;37.600;2023-05-23T11:06:35;99862.53;;;17.53;68.72
70200;BME280;57587;55.688;37.600;2023-05-23T11:09:15;99864.88;;;17.43;68.99
70200;BME280;57587;55.688;37.600;2023-05-23T11:11:51;99867.22;;;17.39;69.47
70200;BME280;57587;55.688;37.600;2023-05-23T11:14:21;99866.00;;;17.35;69.72
70200;BME280;57587;55.688;37.600;2023-05-23T11:16:58;99856.19;;;17.16;70.74
70200;BME280;57587;55.688;37.600;2023-05-23T11:19:27;99860.53;;;17.17;71.37
70200;BME280;57587;55.688;37.600;2023-05-23T11:22:01;99858.44;;;17.19;71.74
70200;BME280;57587;55.688;37.600;2023-05-23T11:24:51;99858.38;;;17.00;72.11
70200;BME280;57587;55.688;37.600;2023-05-23T11:27:33;99857.88;;;17.10;72.53
70200;BME280;57587;55.688;37.600;2023-05-23T11:32:33;99876.50;;;16.93;73.10
70200;BME280;57587;55.688;37.600;2023-05-23T11:35:02;99871.38;;;16.85;73.83
70200;BME280;57587;55.688;37.600;2023-05-23T11:37:31;99867.16;;;16.89;74.42
70200;BME280;57587;55.688;37.600;2023-05-23T11:39:59;99864.59;;;17.01;73.88
70200;BME280;57587;55.688;37.600;2023-05-23T11:42:46;99869.19;;;17.00;73.94
70200;BME280;57587;55.688;37.600;2023-05-23T11:45:13;99867.50;;;16.99;73.53
70200;BME280;57587;55.688;37.600;2023-05-23T11:47:41;99866.91;;;16.97;73.38
70200;BME280;57587;55.688;37.600;2023-05-23T11:50:09;99866.63;;;17.05;73.55
70200;BME280;57587;55.688;37.600;2023-05-23T11:52:36;99855.75;;;17.19;72.92
70200;BME280;57587;55.688;37.600;2023-05-23T11:55:05;99858.03;;;17.40;72.64
70200;BME280;57587;55.688;37.600;2023-05-23T11:57:32;99851.34;;;17.43;71.99
70200;BME280;57587;55.688;37.600;2023-05-23T11:59:59;99858.91;;;17.34;72.65
70200;BME280;57587;55.688;37.600;2023-05-23T12:02:31;99843.53;;;17.60;72.35
70200;BME280;57587;55.688;37.600;2023-05-23T12:05:06;99835.06;;;17.74;71.45
70200;BME280;57587;55.688;37.600;2023-05-23T12:07:33;99842.53;;;17.97;70.53
70200;BME280;57587;55.688;37.600;2023-05-23T12:10:03;99840.72;;;18.10;69.71
70200;BME280;57587;55.688;37.600;2023-05-23T12:12:31;99832.31;;;18.18;68.38
70200;BME280;57587;55.688;37.600;2023-05-23T12:14:59;99828.22;;;18.27;68.18
70200;BME280;57587;55.688;37.600;2023-05-23T12:17:29;99831.78;;;18.39;67.78
70200;BME280;57587;55.688;37.600;2023-05-23T12:19:57;99823.03;;;18.26;67.75
70200;BME280;57587;55.688;37.600;2023-05-23T12:22:24;99833.78;;;18.32;67.25
70200;BME280;57587;55.688;37.600;2023-05-23T12:24:53;99825.25;;;18.47;67.20
70200;BME280;57587;55.688;37.600;2023-05-23T12:27:33;99824.50;;;18.70;66.08
70200;BME280;57587;55.688;37.600;2023-05-23T12:30:08;99820.22;;;18.81;65.64
70200;BME280;57587;55.688;37.600;2023-05-23T12:32:39;99817.88;;;18.96;64.58
70200;BME280;57587;55.688;37.600;2023-05-23T12:35:08;99804.69;;;19.00;64.47
70200;BME280;57587;55.688;37.600;2023-05-23T12:37:43;99803.88;;;19.11;63.46
70200;BME280;57587;55.688;37.600;2023-05-23T12:40:16;99804.34;;;19.31;63.07
70200;BME280;57587;55.688;37.600;2023-05-23T12:42:53;99801.78;;;19.48;62.55
70200;BME280;57587;55.688;37.600;2023-05-23T12:45:22;99794.34;;;19.55;61.84
70200;BME280;57587;55.688;37.600;2023-05-23T12:47:49;99792.94;;;19.65;61.56
70200;BME280;57587;55.688;37.600;2023-05-23T12:50:20;99791.84;;;19.77;60.88
70200;BME280;57587;55.688;37.600;2023-05-23T12:52:47;99786.97;;;19.91;60.83
70200;BME280;57587;55.688;37.600;2023-05-23T12:55:14;99785.91;;;20.04;60.73
70200;BME280;57587;55.688;37.600;2023-05-23T12:57:42;99784.66;;;20.23;60.91
70200;BME280;57587;55.688;37.600;2023-05-23T13:00:10;99793.19;;;20.44;60.28
70200;BME280;57587;55.688;37.600;2023-05-23T13:02:37;99788.53;;;20.56;60.43
70200;BME280;57587;55.688;37.600;2023-05-23T13:05:06;99783.63;;;20.70;60.09
70200;BME280;57587;55.688;37.600;2023-05-23T13:07:33;99767.81;;;20.84;59.30
70200;BME280;57587;55.688;37.600;2023-05-23T13:10:01;99771.78;;;20.93;58.64
70200;BME280;57587;55.688;37.600;2023-05-23T13:12:30;99770.56;;;21.01;58.55
70200;BME280;57587;55.688;37.600;2023-05-23T13:14:58;99770.63;;;21.06;58.57
70200;BME280;57587;55.688;37.600;2023-05-23T13:17:26;99775.75;;;21.19;58.56
70200;BME280;57587;55.688;37.600;2023-05-23T13:19:53;99776.16;;;21.28;57.56
70200;BME280;57587;55.688;37.600;2023-05-23T13:22:20;99778.94;;;21.33;57.54
70200;BME280;57587;55.688;37.600;2023-05-23T13:24:47;99771.72;;;21.38;57.12
70200;BME280;57587;55.688;37.600;2023-05-23T13:27:14;99768.16;;;21.38;57.78